sensor_id;sensor_type;location;lat;lon;timestamp;P1;durP1;ratioP1;P2;durP2;ratioP2
16113;SDS011;8161;-33.910;151.156;2023-01-15T00:01:16;2.97;;;0.77;;
16113;SDS011;8161;-33.910;151.156;2023-01-15T00:03:49;7.05;;;0.75;;
16113;SDS011;8161;-33.910;151.156;2023-01-15T00:06:17;3.63;;;0.77;;
16113;SDS011;8161;-33.910;151.156;2023-01-15T00:08:45;3.20;;;0.90;;
16113;SDS011;8161;-33.910;151.156;2023-01-15T00:11:12;4.10;;;0.95;;
16113;SDS011;8161;-33.910;151.156;2023-01-15T00:13:40;3.45;;;0.93;;
16113;SDS011;8161;-33.910;151.156;2023-01-15T00:16:09;2.05;;;0.80;;
16113;SDS011;8161;-33.910;151.156;2023-01-15T00:18:38;1.75;;;0.90;;
16113;SDS011;8161;-33.910;151.156;2023-01-15T00:21:06;3.15;;;0.93;;
16113;SDS011;8161;-33.910;151.156;2023-01-15T00:23:38;5.97;;;1.10;;
16113;SDS011;8161;-33.910;151.156;2023-01-15T00:26:20;3.35;;;1.17;;
16113;SDS011;8161;-33.910;151.156;2023-01-15T00:29:04;4.05;;;1.25;;
16113;SDS011;8161;-33.910;151.156;2023-01-15T00:31:32;2.92;;;0.80;;
16113;SDS011;8161;-33.910;151.156;2023-01-15T00:34:01;9.77;;;2.38;;
16113;SDS011;8161;-33.910;151.156;2023-01-15T00:36:29;3.90;;;0.90;;
16113;SDS011;8161;-33.910;151.156;2023-01-15T00:38:58;2.08;;;1.00;;
16113;SDS011;8161;-33.910;151.156;2023-01-15T00:41:29;3.88;;;0.82;;
16113;SDS011;8161;-33.910;151.156;2023-01-15T00:43:56;7.32;;;0.98;;
16113;SDS011;8161;-33.910;151.156;2023-01-15T00:46:23;2.50;;;0.85;;
16113;SDS011;8161;-33.910;151.156;2023-01-15T00:48:51;1.83;;;0.82;;
16113;SDS011;8161;-33.910;151.156;2023-01-15T00:51:19;2.17;;;0.82;;
16113;SDS011;8161;-33.910;151.156;2023-01-15T00:53:46;3.35;;;0.93;;
16113;SDS011;8161;-33.910;151.156;2023-01-15T00:56:13;5.50;;;0.98;;
16113;SDS011;8161;-33.910;151.156;2023-01-15T00:58:40;3.42;;;1.00;;
16113;SDS011;8161;-33.910;151.156;2023-01-15T01:01:08;4.95;;;0.95;;
16113;SDS011;8161;-33.910;151.156;2023-01-15T01:03:35;3.65;;;1.10;;
16113;SDS011;8161;-33.910;151.156;2023-01-15T01:06:03;3.78;;;1.02;;
16113;SDS011;8161;-33.910;151.156;2023-01-15T01:08:30;3.60;;;0.80;;
16113;SDS011;8161;-33.910;151.156;2023-01-15T01:11:05;5.57;;;0.80;;
16113;SDS011;8161;-33.910;151.156;2023-01-15T01:13:34;4.57;;;0.90;;
16113;SDS011;8161;-33.910;151.156;2023-01-15T01:16:04;2.67;;;1.02;;
16113;SDS011;8161;-33.910;151.156;2023-01-15T01:18:46;3.53;;;0.88;;
16113;SDS011;8161;-33.910;151.156;2023-01-15T01:21:13;4.10;;;0.80;;
16113;SDS011;8161;-33.910;151.156;2023-01-15T01:23:40;4.00;;;0.90;;
16113;SDS011;8161;-33.910;151.156;2023-01-15T01:26:08;3.38;;;1.00;;
16113;SDS011;8161;-33.910;151.156;2023-01-15T01:28:36;5.90;;;1.33;;
16113;SDS011;8161;-33.910;151.156;2023-01-15T01:31:03;4.82;;;1.20;;
16113;SDS011;8161;-33.910;151.156;2023-01-15T01:33:31;1.33;;;0.80;;
16113;SDS011;8161;-33.910;151.156;2023-01-15T01:35:59;3.65;;;1.20;;
16113;SDS011;8161;-33.910;151.156;2023-01-15T01:38:27;4.28;;;1.00;;
16113;SDS011;8161;-33.910;151.156;2023-01-15T01:40:54;5.43;;;1.10;;
16113;SDS011;8161;-33.910;151.156;2023-01-15T01:43:23;3.30;;;1.00;;
16113;SDS011;8161;-33.910;151.156;2023-01-15T01:45:52;3.85;;;0.90;;
16113;SDS011;8161;-33.910;151.156;2023-01-15T01:48:27;2.75;;;0.90;;
16113;SDS011;8161;-33.910;151.156;2023-01-15T01:50:58;3.88;;;1.23;;
16113;SDS011;8161;-33.910;151.156;2023-01-15T01:53:28;6.00;;;1.10;;
16113;SDS011;8161;-33.910;151.156;2023-01-15T01:55:57;3.33;;;1.10;;
16113;SDS011;8161;-33.910;151.156;2023-01-15T01:58:27;2.03;;;0.93;;
16113;SDS011;8161;-33.910;151.156;2023-01-15T02:00:56;3.22;;;0.95;;
16113;SDS011;8161;-33.910;151.156;2023-01-15T02:03:26;11.15;;;1.55;;
16113;SDS011;8161;-33.910;151.156;2023-01-15T02:05:58;2.95;;;0.98;;
16113;SDS011;8161;-33.910;151.156;2023-01-15T02:08:28;2.90;;;1.23;;
16113;SDS011;8161;-33.910;151.156;2023-01-15T02:10:57;4.82;;;1.00;;
16113;SDS011;8161;-33.910;151.156;2023-01-15T02:16:07;4.95;;;0.98;;
16113;SDS011;8161;-33.910;151.156;2023-01-15T02:21:15;4.57;;;1.17;;
16113;SDS011;8161;-33.910;151.156;2023-01-15T02:24:06;3.85;;;1.20;;
16113;SDS011;8161;-33.910;151.156;2023-01-15T02:29:17;3.78;;;0.85;;
16113;SDS011;8161;-33.910;151.156;2023-01-15T02:31:57;4.00;;;0.93;;
16113;SDS011;8161;-33.910;151.156;2023-01-15T02:34:28;4.88;;;0.98;;
16113;SDS011;8161;-33.910;151.156;2023-01-15T02:37:02;3.17;;;0.90;;
16113;SDS011;8161;-33.910;151.156;2023-01-15T02:39:36;5.28;;;1.00;;
16113;SDS011;8161;-33.910;151.156;2023-01-15T02:42:07;3.63;;;1.20;;
16113;SDS011;8161;-33.910;151.156;2023-01-15T02:44:37;6.25;;;1.02;;
16113;SDS011;8161;-33.910;151.156;2023-01-15T02:47:09;4.65;;;1.00;;
16113;SDS011;8161;-33.910;151.156;2023-01-15T02:49:38;8.27;;;1.10;;
16113;SDS011;8161;-33.910;151.156;2023-01-15T02:52:29;3.08;;;0.90;;
16113;SDS011;8161;-33.910;151.156;2023-01-15T02:55:01;4.30;;;1.20;;
16113;SDS011;8161;-33.910;151.156;2023-01-15T02:57:36;2.17;;;0.80;;
16113;SDS011;8161;-33.910;151.156;2023-01-15T03:00:06;7.82;;;1.17;;
16113;SDS011;8161;-33.910;151.156;2023-01-15T03:02:38;2.58;;;0.95;;
16113;SDS011;8161;-33.910;151.156;2023-01-15T03:05:12;5.03;;;1.05;;
16113;SDS011;8161;-33.910;151.156;2023-01-15T03:07:50;1.83;;;0.80;;
16113;SDS011;8161;-33.910;151.156;2023-01-15T03:13:07;2.58;;;0.98;;
16113;SDS011;8161;-33.910;151.156;2023-01-15T03:18:20;5.70;;;0.90;;
16113;SDS011;8161;-33.910;151.156;2023-01-15T03:20:51;4.28;;;1.25;;
16113;SDS011;8161;-33.910;151.156;2023-01-15T03:23:22;4.10;;;1.10;;
16113;SDS011;8161;-33.910;151.156;2023-01-15T03:25:51;3.75;;;0.90;;
16113;SDS011;8161;-33.910;151.156;2023-01-15T03:28:20;9.32;;;1.00;;
16113;SDS011;8161;-33.910;151.156;2023-01-15T03:30:51;5.97;;;1.35;;
16113;SDS011;8161;-33.910;151.156;2023-01-15T03:33:18;2.97;;;1.00;;
16113;SDS011;8161;-33.910;151.156;2023-01-15T03:35:53;4.30;;;0.85;;
16113;SDS011;8161;-33.910;151.156;2023-01-15T03:38:24;3.53;;;0.95;;
16113;SDS011;8161;-33.910;151.156;2023-01-15T03:46:31;3.03;;;1.00;;
16113;SDS011;8161;-33.910;151.156;2023-01-15T03:49:25;5.05;;;1.20;;
16113;SDS011;8161;-33.910;151.156;2023-01-15T03:52:01;3.28;;;1.00;;
16113;SDS011;8161;-33.910;151.156;2023-01-15T03:55:13;4.03;;;0.88;;
16113;SDS011;8161;-33.910;151.156;2023-01-15T04:01:01;2.17;;;0.98;;
16113;SDS011;8161;-33.910;151.156;2023-01-15T04:03:24;7.22;;;1.40;;
16113;SDS011;8161;-33.910;151.156;2023-01-15T04:05:53;2.55;;;0.80;;
16113;SDS011;8161;-33.910;151.156;2023-01-15T04:08:25;3.08;;;1.13;;
16113;SDS011;8161;-33.910;151.156;2023-01-15T04:10:57;3.35;;;0.90;;
16113;SDS011;8161;-33.910;151.156;2023-01-15T04:13:25;3.03;;;0.95;;
16113;SDS011;8161;-33.910;151.156;2023-01-15T04:15:53;6.07;;;1.33;;
16113;SDS011;8161;-33.910;151.156;2023-01-15T04:18:20;4.85;;;1.35;;
16113;SDS011;8161;-33.910;151.156;2023-01-15T04:20:48;4.85;;;1.10;;
16113;SDS011;8161;-33.910;151.156;2023-01-15T04:23:16;4.00;;;1.10;;
16113;SDS011;8161;-33.910;151.156;2023-01-15T04:25:44;2.33;;;0.90;;
16113;SDS011;8161;-33.910;151.156;2023-01-15T04:28:11;3.72;;;0.80;;
16113;SDS011;8161;-33.910;151.156;2023-01-15T04:30:41;10.75;;;1.02;;
16113;SDS011;8161;-33.910;151.156;2023-01-15T04:33:08;4.88;;;1.35;;
16113;SDS011;8161;-33.910;151.156;2023-01-15T04:35:37;5.60;;;1.25;;
16113;SDS011;8161;-33.910;151.156;2023-01-15T04:38:04;6.85;;;1.08;;
16113;SDS011;8161;-33.910;151.156;2023-01-15T04:40:31;4.45;;;1.30;;
16113;SDS011;8161;-33.910;151.156;2023-01-15T04:43:12;6.50;;;1.10;;
16113;SDS011;8161;-33.910;151.156;2023-01-15T04:45:53;4.00;;;1.20;;
16113;SDS011;8161;-33.910;151.156;2023-01-15T04:48:20;3.35;;;1.25;;
16113;SDS011;8161;-33.910;151.156;2023-01-15T04:50:48;5.55;;;1.23;;
16113;SDS011;8161;-33.910;151.156;2023-01-15T04:53:15;5.38;;;1.10;;
16113;SDS011;8161;-33.910;151.156;2023-01-15T04:55:42;5.75;;;1.60;;
16113;SDS011;8161;-33.910;151.156;2023-01-15T04:58:10;5.05;;;1.50;;
16113;SDS011;8161;-33.910;151.156;2023-01-15T05:00:38;5.43;;;1.20;;
16113;SDS011;8161;-33.910;151.156;2023-01-15T05:03:06;3.60;;;1.25;;
16113;SDS011;8161;-33.910;151.156;2023-01-15T05:05:33;6.53;;;1.23;;
16113;SDS011;8161;-33.910;151.156;2023-01-15T05:08:00;5.65;;;2.15;;
16113;SDS011;8161;-33.910;151.156;2023-01-15T05:10:29;7.97;;;1.40;;
16113;SDS011;8161;-33.910;151.156;2023-01-15T05:12:56;3.20;;;1.02;;
16113;SDS011;8161;-33.910;151.156;2023-01-15T05:15:23;6.65;;;1.77;;
16113;SDS011;8161;-33.910;151.156;2023-01-15T05:17:51;6.40;;;1.50;;
16113;SDS011;8161;-33.910;151.156;2023-01-15T05:20:18;6.85;;;1.23;;
16113;SDS011;8161;-33.910;151.156;2023-01-15T05:22:45;5.30;;;1.10;;
16113;SDS011;8161;-33.910;151.156;2023-01-15T05:25:12;5.30;;;1.27;;
16113;SDS011;8161;-33.910;151.156;2023-01-15T05:27:40;5.75;;;1.30;;
16113;SDS011;8161;-33.910;151.156;2023-01-15T05:30:07;5.55;;;1.23;;
16113;SDS011;8161;-33.910;151.156;2023-01-15T05:32:35;5.50;;;1.38;;
16113;SDS011;8161;-33.910;151.156;2023-01-15T05:35:03;5.43;;;1.30;;
16113;SDS011;8161;-33.910;151.156;2023-01-15T05:37:30;4.60;;;1.20;;
16113;SDS011;8161;-33.910;151.156;2023-01-15T05:39:57;6.00;;;1.48;;
16113;SDS011;8161;-33.910;151.156;2023-01-15T05:42:25;8.20;;;1.40;;
16113;SDS011;8161;-33.910;151.156;2023-01-15T05:44:52;6.18;;;1.00;;
16113;SDS011;8161;-33.910;151.156;2023-01-15T05:47:19;6.95;;;1.67;;
16113;SDS011;8161;-33.910;151.156;2023-01-15T05:49:47;6.63;;;1.30;;
16113;SDS011;8161;-33.910;151.156;2023-01-15T05:52:14;5.55;;;1.27;;
16113;SDS011;8161;-33.910;151.156;2023-01-15T05:54:47;4.65;;;1.30;;
16113;SDS011;8161;-33.910;151.156;2023-01-15T05:57:15;11.68;;;2.55;;
16113;SDS011;8161;-33.910;151.156;2023-01-15T05:59:42;6.68;;;1.27;;
16113;SDS011;8161;-33.910;151.156;2023-01-15T06:02:09;9.18;;;1.70;;
16113;SDS011;8161;-33.910;151.156;2023-01-15T06:04:36;6.28;;;1.42;;
16113;SDS011;8161;-33.910;151.156;2023-01-15T06:07:04;9.50;;;1.80;;
16113;SDS011;8161;-33.910;151.156;2023-01-15T06:09:31;7.00;;;1.70;;
16113;SDS011;8161;-33.910;151.156;2023-01-15T06:11:58;8.05;;;1.70;;
16113;SDS011;8161;-33.910;151.156;2023-01-15T06:14:25;7.05;;;1.45;;
16113;SDS011;8161;-33.910;151.156;2023-01-15T06:16:53;7.18;;;1.50;;
16113;SDS011;8161;-33.910;151.156;2023-01-15T06:19:20;9.15;;;1.77;;
16113;SDS011;8161;-33.910;151.156;2023-01-15T06:21:47;4.85;;;1.65;;
16113;SDS011;8161;-33.910;151.156;2023-01-15T06:24:15;7.63;;;1.75;;
16113;SDS011;8161;-33.910;151.156;2023-01-15T06:26:44;5.38;;;1.70;;
16113;SDS011;8161;-33.910;151.156;2023-01-15T06:29:11;11.30;;;1.58;;
16113;SDS011;8161;-33.910;151.156;2023-01-15T06:31:43;12.35;;;2.15;;
16113;SDS011;8161;-33.910;151.156;2023-01-15T06:34:10;4.60;;;1.40;;
16113;SDS011;8161;-33.910;151.156;2023-01-15T06:36:38;8.43;;;1.70;;
16113;SDS011;8161;-33.910;151.156;2023-01-15T06:39:05;7.53;;;1.92;;
16113;SDS011;8161;-33.910;151.156;2023-01-15T06:41:32;8.13;;;2.08;;
16113;SDS011;8161;-33.910;151.156;2023-01-15T06:44:13;9.45;;;2.10;;
16113;SDS011;8161;-33.910;151.156;2023-01-15T06:46:55;8.60;;;1.85;;
16113;SDS011;8161;-33.910;151.156;2023-01-15T06:49:36;8.60;;;1.80;;
16113;SDS011;8161;-33.910;151.156;2023-01-15T06:52:04;12.05;;;1.70;;
16113;SDS011;8161;-33.910;151.156;2023-01-15T06:54:32;9.73;;;1.65;;
16113;SDS011;8161;-33.910;151.156;2023-01-15T06:57:00;10.35;;;1.50;;
16113;SDS011;8161;-33.910;151.156;2023-01-15T06:59:27;10.48;;;2.40;;
16113;SDS011;8161;-33.910;151.156;2023-01-15T07:01:55;10.85;;;2.17;;
16113;SDS011;8161;-33.910;151.156;2023-01-15T07:04:23;9.98;;;1.88;;
16113;SDS011;8161;-33.910;151.156;2023-01-15T07:06:50;11.82;;;2.17;;
16113;SDS011;8161;-33.910;151.156;2023-01-15T07:09:18;12.75;;;2.05;;
16113;SDS011;8161;-33.910;151.156;2023-01-15T07:11:45;11.55;;;2.47;;
16113;SDS011;8161;-33.910;151.156;2023-01-15T07:14:18;13.90;;;2.40;;
16113;SDS011;8161;-33.910;151.156;2023-01-15T07:16:52;10.38;;;2.13;;
16113;SDS011;8161;-33.910;151.156;2023-01-15T07:19:20;10.18;;;2.00;;
16113;SDS011;8161;-33.910;151.156;2023-01-15T07:21:47;12.65;;;2.13;;
16113;SDS011;8161;-33.910;151.156;2023-01-15T07:24:15;8.98;;;2.30;;
16113;SDS011;8161;-33.910;151.156;2023-01-15T07:26:43;11.70;;;1.95;;
16113;SDS011;8161;-33.910;151.156;2023-01-15T07:29:11;5.90;;;1.52;;
16113;SDS011;8161;-33.910;151.156;2023-01-15T07:31:38;9.73;;;1.92;;
16113;SDS011;8161;-33.910;151.156;2023-01-15T07:34:06;14.30;;;2.30;;
16113;SDS011;8161;-33.910;151.156;2023-01-15T07:36:33;10.40;;;2.10;;
16113;SDS011;8161;-33.910;151.156;2023-01-15T07:39:04;12.35;;;2.25;;
16113;SDS011;8161;-33.910;151.156;2023-01-15T07:41:34;10.98;;;2.35;;
16113;SDS011;8161;-33.910;151.156;2023-01-15T07:44:15;10.32;;;1.80;;
16113;SDS011;8161;-33.910;151.156;2023-01-15T07:46:59;16.67;;;2.58;;
16113;SDS011;8161;-33.910;151.156;2023-01-15T07:49:41;13.98;;;2.00;;
16113;SDS011;8161;-33.910;151.156;2023-01-15T07:52:13;17.40;;;2.25;;
16113;SDS011;8161;-33.910;151.156;2023-01-15T07:54:43;11.48;;;2.40;;
16113;SDS011;8161;-33.910;151.156;2023-01-15T07:57:11;10.88;;;2.20;;
16113;SDS011;8161;-33.910;151.156;2023-01-15T07:59:40;11.07;;;2.63;;
16113;SDS011;8161;-33.910;151.156;2023-01-15T08:02:07;12.13;;;2.28;;
16113;SDS011;8161;-33.910;151.156;2023-01-15T08:04:35;9.65;;;2.30;;
16113;SDS011;8161;-33.910;151.156;2023-01-15T08:07:02;11.82;;;2.10;;
16113;SDS011;8161;-33.910;151.156;2023-01-15T08:09:30;12.63;;;2.10;;
16113;SDS011;8161;-33.910;151.156;2023-01-15T08:12:02;11.45;;;1.80;;
16113;SDS011;8161;-33.910;151.156;2023-01-15T08:14:43;11.43;;;2.15;;
16113;SDS011;8161;-33.910;151.156;2023-01-15T08:17:25;9.95;;;2.50;;
16113;SDS011;8161;-33.910;151.156;2023-01-15T08:19:52;15.20;;;2.35;;
16113;SDS011;8161;-33.910;151.156;2023-01-15T08:22:19;8.70;;;2.20;;
16113;SDS011;8161;-33.910;151.156;2023-01-15T08:24:47;8.95;;;1.70;;
16113;SDS011;8161;-33.910;151.156;2023-01-15T08:27:14;14.45;;;2.35;;
16113;SDS011;8161;-33.910;151.156;2023-01-15T08:29:41;10.80;;;2.15;;
16113;SDS011;8161;-33.910;151.156;2023-01-15T08:32:09;9.40;;;1.75;;
16113;SDS011;8161;-33.910;151.156;2023-01-15T08:34:36;17.73;;;2.35;;
16113;SDS011;8161;-33.910;151.156;2023-01-15T08:37:03;8.93;;;2.22;;
16113;SDS011;8161;-33.910;151.156;2023-01-15T08:39:31;13.00;;;2.17;;
16113;SDS011;8161;-33.910;151.156;2023-01-15T08:41:58;11.80;;;2.42;;
16113;SDS011;8161;-33.910;151.156;2023-01-15T08:44:25;10.23;;;2.05;;
16113;SDS011;8161;-33.910;151.156;2023-01-15T08:46:52;10.77;;;1.92;;
16113;SDS011;8161;-33.910;151.156;2023-01-15T08:49:20;17.52;;;2.30;;
16113;SDS011;8161;-33.910;151.156;2023-01-15T08:51:47;12.18;;;2.63;;
16113;SDS011;8161;-33.910;151.156;2023-01-15T08:54:20;12.60;;;2.28;;
16113;SDS011;8161;-33.910;151.156;2023-01-15T08:56:51;13.95;;;2.33;;
16113;SDS011;8161;-33.910;151.156;2023-01-15T08:59:18;10.57;;;2.25;;
16113;SDS011;8161;-33.910;151.156;2023-01-15T09:01:45;12.25;;;2.35;;
16113;SDS011;8161;-33.910;151.156;2023-01-15T09:04:13;11.65;;;2.00;;
16113;SDS011;8161;-33.910;151.156;2023-01-15T09:06:42;10.55;;;2.10;;
16113;SDS011;8161;-33.910;151.156;2023-01-15T09:09:10;19.25;;;2.75;;
16113;SDS011;8161;-33.910;151.156;2023-01-15T09:11:38;20.58;;;2.78;;
16113;SDS011;8161;-33.910;151.156;2023-01-15T09:14:09;11.48;;;2.35;;
16113;SDS011;8161;-33.910;151.156;2023-01-15T09:16:38;8.32;;;2.08;;
16113;SDS011;8161;-33.910;151.156;2023-01-15T09:19:06;12.05;;;2.47;;
16113;SDS011;8161;-33.910;151.156;2023-01-15T09:21:35;17.15;;;2.45;;
16113;SDS011;8161;-33.910;151.156;2023-01-15T09:24:02;10.88;;;2.35;;
16113;SDS011;8161;-33.910;151.156;2023-01-15T09:26:32;11.95;;;1.92;;
16113;SDS011;8161;-33.910;151.156;2023-01-15T09:29:00;12.25;;;2.10;;
16113;SDS011;8161;-33.910;151.156;2023-01-15T09:31:29;14.18;;;2.60;;
16113;SDS011;8161;-33.910;151.156;2023-01-15T09:33:56;10.57;;;2.20;;
16113;SDS011;8161;-33.910;151.156;2023-01-15T09:36:27;10.10;;;2.75;;
16113;SDS011;8161;-33.910;151.156;2023-01-15T09:38:56;18.90;;;2.22;;
16113;SDS011;8161;-33.910;151.156;2023-01-15T09:41:48;11.85;;;1.88;;
16113;SDS011;8161;-33.910;151.156;2023-01-15T09:50:25;13.70;;;2.50;;
16113;SDS011;8161;-33.910;151.156;2023-01-15T09:55:48;12.48;;;2.22;;
16113;SDS011;8161;-33.910;151.156;2023-01-15T09:58:18;16.27;;;2.28;;
16113;SDS011;8161;-33.910;151.156;2023-01-15T10:00:49;15.15;;;2.08;;
16113;SDS011;8161;-33.910;151.156;2023-01-15T10:06:03;14.10;;;2.33;;
16113;SDS011;8161;-33.910;151.156;2023-01-15T10:08:36;15.32;;;2.15;;
16113;SDS011;8161;-33.910;151.156;2023-01-15T10:13:45;8.57;;;1.58;;
16113;SDS011;8161;-33.910;151.156;2023-01-15T10:16:20;10.43;;;1.92;;
16113;SDS011;8161;-33.910;151.156;2023-01-15T10:18:50;12.45;;;2.47;;
16113;SDS011;8161;-33.910;151.156;2023-01-15T10:26:56;14.48;;;2.60;;
16113;SDS011;8161;-33.910;151.156;2023-01-15T10:43:24;18.40;;;2.38;;
16113;SDS011;8161;-33.910;151.156;2023-01-15T10:46:15;13.82;;;2.22;;
16113;SDS011;8161;-33.910;151.156;2023-01-15T10:48:45;15.15;;;2.70;;
16113;SDS011;8161;-33.910;151.156;2023-01-15T10:54:23;8.10;;;1.85;;
16113;SDS011;8161;-33.910;151.156;2023-01-15T10:59:56;16.77;;;2.35;;
16113;SDS011;8161;-33.910;151.156;2023-01-15T11:04:57;8.77;;;1.90;;
16113;SDS011;8161;-33.910;151.156;2023-01-15T11:08:11;11.50;;;2.15;;
16113;SDS011;8161;-33.910;151.156;2023-01-15T11:10:19;9.45;;;1.80;;
16113;SDS011;8161;-33.910;151.156;2023-01-15T11:15:52;12.90;;;1.88;;
16113;SDS011;8161;-33.910;151.156;2023-01-15T11:18:42;10.77;;;2.10;;
16113;SDS011;8161;-33.910;151.156;2023-01-15T11:21:24;12.82;;;2.13;;
16113;SDS011;8161;-33.910;151.156;2023-01-15T11:23:53;13.65;;;1.85;;
16113;SDS011;8161;-33.910;151.156;2023-01-15T11:26:22;11.15;;;1.75;;
16113;SDS011;8161;-33.910;151.156;2023-01-15T11:28:56;14.05;;;2.28;;
16113;SDS011;8161;-33.910;151.156;2023-01-15T11:31:36;11.48;;;1.90;;
16113;SDS011;8161;-33.910;151.156;2023-01-15T11:34:05;15.05;;;2.00;;
16113;SDS011;8161;-33.910;151.156;2023-01-15T11:36:43;14.52;;;1.60;;
16113;SDS011;8161;-33.910;151.156;2023-01-15T11:42:02;14.40;;;2.20;;
16113;SDS011;8161;-33.910;151.156;2023-01-15T11:44:53;11.00;;;2.83;;
16113;SDS011;8161;-33.910;151.156;2023-01-15T11:47:35;16.02;;;2.70;;
16113;SDS011;8161;-33.910;151.156;2023-01-15T11:50:16;9.38;;;1.67;;
16113;SDS011;8161;-33.910;151.156;2023-01-15T11:52:57;12.50;;;2.45;;
16113;SDS011;8161;-33.910;151.156;2023-01-15T11:55:25;11.40;;;1.85;;
16113;SDS011;8161;-33.910;151.156;2023-01-15T11:57:54;12.38;;;2.10;;
16113;SDS011;8161;-33.910;151.156;2023-01-15T12:00:27;14.05;;;1.95;;
16113;SDS011;8161;-33.910;151.156;2023-01-15T12:03:10;12.70;;;2.58;;
16113;SDS011;8161;-33.910;151.156;2023-01-15T12:05:44;14.00;;;2.72;;
16113;SDS011;8161;-33.910;151.156;2023-01-15T12:13:50;15.05;;;2.25;;
16113;SDS011;8161;-33.910;151.156;2023-01-15T12:24:24;14.43;;;2.60;;
16113;SDS011;8161;-33.910;151.156;2023-01-15T12:32:36;11.15;;;1.90;;
16113;SDS011;8161;-33.910;151.156;2023-01-15T12:35:14;12.32;;;2.38;;
16113;SDS011;8161;-33.910;151.156;2023-01-15T12:37:58;17.25;;;2.03;;
16113;SDS011;8161;-33.910;151.156;2023-01-15T12:40:48;14.32;;;2.10;;
16113;SDS011;8161;-33.910;151.156;2023-01-15T12:43:26;14.18;;;2.55;;
16113;SDS011;8161;-33.910;151.156;2023-01-15T12:46:11;10.23;;;1.77;;
16113;SDS011;8161;-33.910;151.156;2023-01-15T12:48:47;10.95;;;1.48;;
16113;SDS011;8161;-33.910;151.156;2023-01-15T12:51:27;8.00;;;1.63;;
16113;SDS011;8161;-33.910;151.156;2023-01-15T12:54:22;19.80;;;2.15;;
16113;SDS011;8161;-33.910;151.156;2023-01-15T12:56:55;14.40;;;1.88;;
16113;SDS011;8161;-33.910;151.156;2023-01-15T12:59:33;16.13;;;2.25;;
16113;SDS011;8161;-33.910;151.156;2023-01-15T13:02:27;12.07;;;1.98;;
16113;SDS011;8161;-33.910;151.156;2023-01-15T13:05:19;16.00;;;2.58;;
16113;SDS011;8161;-33.910;151.156;2023-01-15T13:10:37;13.57;;;1.95;;
16113;SDS011;8161;-33.910;151.156;2023-01-15T13:13:14;16.33;;;2.28;;
16113;SDS011;8161;-33.910;151.156;2023-01-15T13:16:07;14.70;;;2.25;;
16113;SDS011;8161;-33.910;151.156;2023-01-15T13:21:26;21.30;;;2.83;;
16113;SDS011;8161;-33.910;151.156;2023-01-15T13:32:18;5.85;;;1.40;;
16113;SDS011;8161;-33.910;151.156;2023-01-15T13:34:56;13.70;;;2.50;;
16113;SDS011;8161;-33.910;151.156;2023-01-15T13:37:46;10.25;;;1.60;;
16113;SDS011;8161;-33.910;151.156;2023-01-15T13:43:08;10.38;;;2.10;;
16113;SDS011;8161;-33.910;151.156;2023-01-15T13:45:52;11.10;;;1.73;;
16113;SDS011;8161;-33.910;151.156;2023-01-15T13:48:30;14.95;;;1.83;;
16113;SDS011;8161;-33.910;151.156;2023-01-15T13:51:01;14.30;;;2.15;;
16113;SDS011;8161;-33.910;151.156;2023-01-15T13:56:11;15.63;;;1.75;;
16113;SDS011;8161;-33.910;151.156;2023-01-15T13:59:01;15.68;;;2.22;;
16113;SDS011;8161;-33.910;151.156;2023-01-15T14:04:00;17.95;;;2.15;;
16113;SDS011;8161;-33.910;151.156;2023-01-15T14:22:44;11.68;;;1.50;;
16113;SDS011;8161;-33.910;151.156;2023-01-15T14:33:57;10.73;;;1.98;;
16113;SDS011;8161;-33.910;151.156;2023-01-15T14:42:22;9.68;;;1.40;;
16113;SDS011;8161;-33.910;151.156;2023-01-15T14:47:46;8.65;;;1.58;;
16113;SDS011;8161;-33.910;151.156;2023-01-15T14:52:54;11.25;;;2.00;;
16113;SDS011;8161;-33.910;151.156;2023-01-15T14:55:28;7.18;;;1.63;;
16113;SDS011;8161;-33.910;151.156;2023-01-15T14:57:58;9.25;;;1.70;;
16113;SDS011;8161;-33.910;151.156;2023-01-15T15:00:38;8.48;;;1.58;;
16113;SDS011;8161;-33.910;151.156;2023-01-15T15:03:16;14.23;;;1.45;;
16113;SDS011;8161;-33.910;151.156;2023-01-15T15:05:46;10.93;;;1.55;;
16113;SDS011;8161;-33.910;151.156;2023-01-15T15:08:15;12.88;;;2.03;;
16113;SDS011;8161;-33.910;151.156;2023-01-15T15:10:45;9.10;;;1.45;;
16113;SDS011;8161;-33.910;151.156;2023-01-15T15:13:33;13.02;;;2.25;;
16113;SDS011;8161;-33.910;151.156;2023-01-15T15:21:29;12.73;;;1.83;;
16113;SDS011;8161;-33.910;151.156;2023-01-15T15:26:48;10.07;;;1.30;;
16113;SDS011;8161;-33.910;151.156;2023-01-15T15:29:16;9.82;;;1.83;;
16113;SDS011;8161;-33.910;151.156;2023-01-15T15:31:48;10.88;;;1.70;;
16113;SDS011;8161;-33.910;151.156;2023-01-15T15:34:31;8.23;;;1.38;;
16113;SDS011;8161;-33.910;151.156;2023-01-15T15:37:11;10.93;;;2.08;;
16113;SDS011;8161;-33.910;151.156;2023-01-15T15:45:31;13.48;;;2.20;;
16113;SDS011;8161;-33.910;151.156;2023-01-15T15:48:28;8.07;;;1.55;;
16113;SDS011;8161;-33.910;151.156;2023-01-15T15:56:43;6.93;;;1.40;;
16113;SDS011;8161;-33.910;151.156;2023-01-15T16:01:54;6.22;;;1.50;;
16113;SDS011;8161;-33.910;151.156;2023-01-15T16:04:23;7.28;;;1.27;;
16113;SDS011;8161;-33.910;151.156;2023-01-15T16:06:51;7.80;;;1.52;;
16113;SDS011;8161;-33.910;151.156;2023-01-15T16:09:22;10.02;;;1.27;;
16113;SDS011;8161;-33.910;151.156;2023-01-15T16:11:51;7.80;;;1.15;;
16113;SDS011;8161;-33.910;151.156;2023-01-15T16:14:19;10.82;;;1.50;;
16113;SDS011;8161;-33.910;151.156;2023-01-15T16:16:47;12.35;;;2.13;;
16113;SDS011;8161;-33.910;151.156;2023-01-15T16:19:18;8.73;;;1.25;;
16113;SDS011;8161;-33.910;151.156;2023-01-15T16:21:50;8.55;;;1.20;;
16113;SDS011;8161;-33.910;151.156;2023-01-15T16:24:22;6.03;;;1.45;;
16113;SDS011;8161;-33.910;151.156;2023-01-15T16:26:54;9.43;;;1.58;;
16113;SDS011;8161;-33.910;151.156;2023-01-15T16:29:28;7.88;;;1.52;;
16113;SDS011;8161;-33.910;151.156;2023-01-15T16:31:58;9.73;;;1.10;;
16113;SDS011;8161;-33.910;151.156;2023-01-15T16:34:34;7.70;;;1.30;;
16113;SDS011;8161;-33.910;151.156;2023-01-15T16:37:01;10.60;;;1.17;;
16113;SDS011;8161;-33.910;151.156;2023-01-15T16:39:38;6.85;;;1.33;;
16113;SDS011;8161;-33.910;151.156;2023-01-15T16:45:29;5.60;;;1.35;;
16113;SDS011;8161;-33.910;151.156;2023-01-15T16:50:45;19.25;;;1.65;;
16113;SDS011;8161;-33.910;151.156;2023-01-15T16:55:54;8.70;;;1.63;;
16113;SDS011;8161;-33.910;151.156;2023-01-15T16:58:32;5.95;;;1.27;;
16113;SDS011;8161;-33.910;151.156;2023-01-15T17:01:21;9.38;;;1.50;;
16113;SDS011;8161;-33.910;151.156;2023-01-15T17:03:51;9.27;;;1.40;;
16113;SDS011;8161;-33.910;151.156;2023-01-15T17:06:20;10.93;;;1.30;;
16113;SDS011;8161;-33.910;151.156;2023-01-15T17:08:50;7.43;;;1.08;;
16113;SDS011;8161;-33.910;151.156;2023-01-15T17:11:25;6.53;;;1.35;;
16113;SDS011;8161;-33.910;151.156;2023-01-15T17:16:36;6.13;;;1.23;;
16113;SDS011;8161;-33.910;151.156;2023-01-15T17:19:04;4.55;;;1.00;;
16113;SDS011;8161;-33.910;151.156;2023-01-15T17:21:32;5.95;;;1.55;;
16113;SDS011;8161;-33.910;151.156;2023-01-15T17:24:01;5.50;;;1.20;;
16113;SDS011;8161;-33.910;151.156;2023-01-15T17:26:34;7.75;;;1.35;;
16113;SDS011;8161;-33.910;151.156;2023-01-15T17:29:01;5.35;;;1.17;;
16113;SDS011;8161;-33.910;151.156;2023-01-15T17:31:29;6.57;;;1.20;;
16113;SDS011;8161;-33.910;151.156;2023-01-15T17:33:58;9.57;;;2.50;;
16113;SDS011;8161;-33.910;151.156;2023-01-15T17:36:27;4.85;;;1.10;;
16113;SDS011;8161;-33.910;151.156;2023-01-15T17:38:55;6.15;;;1.52;;
16113;SDS011;8161;-33.910;151.156;2023-01-15T17:41:23;5.45;;;1.13;;
16113;SDS011;8161;-33.910;151.156;2023-01-15T17:43:51;11.63;;;1.35;;